sensor_id;sensor_type;location;lat;lon;timestamp;pressure;altitude;pressure_sealevel;temperature
14666;BMP280;7420;53.574;10.040;2022-12-04T00:01:45;102331.03;;;-0.16
14666;BMP280;7420;53.574;10.040;2022-12-04T00:04:10;102332.09;;;-0.06
14666;BMP280;7420;53.574;10.040;2022-12-04T00:06:35;102332.53;;;0.00
14666;BMP280;7420;53.574;10.040;2022-12-04T00:09:00;102343.06;;;-0.14
14666;BMP280;7420;53.574;10.040;2022-12-04T00:11:29;102338.25;;;-0.07
14666;BMP280;7420;53.574;10.040;2022-12-04T00:13:56;102328.06;;;0.14
14666;BMP280;7420;53.574;10.040;2022-12-04T00:16:23;102334.19;;;0.01
14666;BMP280;7420;53.574;10.040;2022-12-04T00:18:49;102326.06;;;0.05
14666;BMP280;7420;53.574;10.040;2022-12-04T00:21:15;102336.94;;;-0.01
14666;BMP280;7420;53.574;10.040;2022-12-04T00:23:40;102337.78;;;0.00
14666;BMP280;7420;53.574;10.040;2022-12-04T00:26:08;102336.53;;;0.05
14666;BMP280;7420;53.574;10.040;2022-12-04T00:28:33;102329.81;;;0.01
14666;BMP280;7420;53.574;10.040;2022-12-04T00:30:59;102330.53;;;-0.09
14666;BMP280;7420;53.574;10.040;2022-12-04T00:33:24;102328.34;;;0.22
14666;BMP280;7420;53.574;10.040;2022-12-04T00:35:59;102330.75;;;0.13
14666;BMP280;7420;53.574;10.040;2022-12-04T00:38:25;102329.16;;;-0.14
14666;BMP280;7420;53.574;10.040;2022-12-04T00:40:50;102326.25;;;-0.10
14666;BMP280;7420;53.574;10.040;2022-12-04T00:43:16;102333.38;;;0.00
14666;BMP280;7420;53.574;10.040;2022-12-04T00:45:41;102326.47;;;-0.01
14666;BMP280;7420;53.574;10.040;2022-12-04T00:48:06;102323.25;;;0.21
14666;BMP280;7420;53.574;10.040;2022-12-04T00:50:31;102328.56;;;0.07
14666;BMP280;7420;53.574;10.040;2022-12-04T00:52:57;102329.09;;;-0.01
14666;BMP280;7420;53.574;10.040;2022-12-04T00:55:22;102319.16;;;0.04
14666;BMP280;7420;53.574;10.040;2022-12-04T00:57:47;102320.63;;;0.08
14666;BMP280;7420;53.574;10.040;2022-12-04T01:00:13;102315.50;;;0.19
14666;BMP280;7420;53.574;10.040;2022-12-04T01:02:38;102317.47;;;0.28
14666;BMP280;7420;53.574;10.040;2022-12-04T01:05:03;102310.78;;;0.37
14666;BMP280;7420;53.574;10.040;2022-12-04T01:07:28;102325.25;;;0.17
14666;BMP280;7420;53.574;10.040;2022-12-04T01:09:54;102320.22;;;0.14
14666;BMP280;7420;53.574;10.040;2022-12-04T01:12:19;102316.88;;;0.25
14666;BMP280;7420;53.574;10.040;2022-12-04T01:14:44;102319.34;;;0.14
14666;BMP280;7420;53.574;10.040;2022-12-04T01:17:09;102319.16;;;0.17
14666;BMP280;7420;53.574;10.040;2022-12-04T01:19:35;102323.56;;;0.16
14666;BMP280;7420;53.574;10.040;2022-12-04T01:22:00;102318.28;;;0.04
14666;BMP280;7420;53.574;10.040;2022-12-04T01:24:25;102325.84;;;0.08
14666;BMP280;7420;53.574;10.040;2022-12-04T01:26:50;102321.66;;;0.06
14666;BMP280;7420;53.574;10.040;2022-12-04T01:29:15;102325.25;;;0.17
14666;BMP280;7420;53.574;10.040;2022-12-04T01:31:41;102319.59;;;0.36
14666;BMP280;7420;53.574;10.040;2022-12-04T01:34:06;102322.91;;;0.13
14666;BMP280;7420;53.574;10.040;2022-12-04T01:36:31;102317.41;;;0.17
14666;BMP280;7420;53.574;10.040;2022-12-04T01:38:57;102322.09;;;0.12
14666;BMP280;7420;53.574;10.040;2022-12-04T01:41:23;102315.59;;;0.30
14666;BMP280;7420;53.574;10.040;2022-12-04T01:46:53;102314.97;;;0.27
14666;BMP280;7420;53.574;10.040;2022-12-04T01:49:22;102306.81;;;0.06
14666;BMP280;7420;53.574;10.040;2022-12-04T01:51:50;102309.00;;;0.37
14666;BMP280;7420;53.574;10.040;2022-12-04T01:54:21;102311.31;;;0.17
14666;BMP280;7420;53.574;10.040;2022-12-04T01:56:53;102309.53;;;0.17
14666;BMP280;7420;53.574;10.040;2022-12-04T01:59:21;102306.06;;;0.42
14666;BMP280;7420;53.574;10.040;2022-12-04T02:01:54;102306.78;;;0.44
14666;BMP280;7420;53.574;10.040;2022-12-04T02:04:21;102307.13;;;0.14
14666;BMP280;7420;53.574;10.040;2022-12-04T02:06:46;102306.06;;;0.04
14666;BMP280;7420;53.574;10.040;2022-12-04T02:09:11;102312.56;;;0.11
14666;BMP280;7420;53.574;10.040;2022-12-04T02:11:51;102293.19;;;0.26
14666;BMP280;7420;53.574;10.040;2022-12-04T02:16:58;102312.91;;;0.19
14666;BMP280;7420;53.574;10.040;2022-12-04T02:22:09;102295.72;;;0.15
14666;BMP280;7420;53.574;10.040;2022-12-04T02:29:50;102284.13;;;0.19
14666;BMP280;7420;53.574;10.040;2022-12-04T02:32:18;102287.13;;;0.38
14666;BMP280;7420;53.574;10.040;2022-12-04T02:34:54;102280.78;;;0.17
14666;BMP280;7420;53.574;10.040;2022-12-04T02:37:27;102278.25;;;0.16
14666;BMP280;7420;53.574;10.040;2022-12-04T02:39:55;102286.00;;;0.17
14666;BMP280;7420;53.574;10.040;2022-12-04T02:42:35;102280.78;;;0.17
14666;BMP280;7420;53.574;10.040;2022-12-04T02:45:13;102280.97;;;0.14
14666;BMP280;7420;53.574;10.040;2022-12-04T02:47:39;102280.53;;;0.20
14666;BMP280;7420;53.574;10.040;2022-12-04T02:50:06;102281.78;;;0.27
14666;BMP280;7420;53.574;10.040;2022-12-04T02:52:34;102278.13;;;0.42
14666;BMP280;7420;53.574;10.040;2022-12-04T02:55:02;102276.13;;;0.33
14666;BMP280;7420;53.574;10.040;2022-12-04T02:57:30;102276.75;;;0.24
14666;BMP280;7420;53.574;10.040;2022-12-04T02:59:58;102278.16;;;0.17
14666;BMP280;7420;53.574;10.040;2022-12-04T03:02:27;102275.81;;;0.25
14666;BMP280;7420;53.574;10.040;2022-12-04T03:04:53;102276.44;;;0.41
14666;BMP280;7420;53.574;10.040;2022-12-04T03:07:23;102276.88;;;0.23
14666;BMP280;7420;53.574;10.040;2022-12-04T03:09:58;102276.53;;;0.40
14666;BMP280;7420;53.574;10.040;2022-12-04T03:14:54;102281.91;;;0.38
14666;BMP280;7420;53.574;10.040;2022-12-04T03:17:28;102285.44;;;0.37
14666;BMP280;7420;53.574;10.040;2022-12-04T03:19:56;102288.16;;;0.48
14666;BMP280;7420;53.574;10.040;2022-12-04T03:22:22;102284.63;;;0.49
14666;BMP280;7420;53.574;10.040;2022-12-04T03:24:52;102291.72;;;0.22
14666;BMP280;7420;53.574;10.040;2022-12-04T03:30:03;102278.34;;;0.39
14666;BMP280;7420;53.574;10.040;2022-12-04T03:35:02;102284.63;;;0.24
14666;BMP280;7420;53.574;10.040;2022-12-04T03:42:47;102278.53;;;0.36
14666;BMP280;7420;53.574;10.040;2022-12-04T03:47:44;102286.72;;;0.44
14666;BMP280;7420;53.574;10.040;2022-12-04T03:50:33;102277.91;;;0.45
14666;BMP280;7420;53.574;10.040;2022-12-04T03:52:59;102280.00;;;0.40
14666;BMP280;7420;53.574;10.040;2022-12-04T03:57:55;102274.44;;;0.45
14666;BMP280;7420;53.574;10.040;2022-12-04T04:00:22;102278.44;;;0.50
14666;BMP280;7420;53.574;10.040;2022-12-04T04:02:48;102273.50;;;0.58
14666;BMP280;7420;53.574;10.040;2022-12-04T04:05:16;102279.75;;;0.68
14666;BMP280;7420;53.574;10.040;2022-12-04T04:10:55;102275.91;;;0.49
14666;BMP280;7420;53.574;10.040;2022-12-04T04:13:24;102273.50;;;0.46
14666;BMP280;7420;53.574;10.040;2022-12-04T04:16:09;102277.72;;;0.48
14666;BMP280;7420;53.574;10.040;2022-12-04T04:18:54;102274.91;;;0.39
14666;BMP280;7420;53.574;10.040;2022-12-04T04:21:38;102282.63;;;0.40
14666;BMP280;7420;53.574;10.040;2022-12-04T04:24:49;102275.81;;;0.50
14666;BMP280;7420;53.574;10.040;2022-12-04T04:27:11;102271.19;;;0.54
14666;BMP280;7420;53.574;10.040;2022-12-04T04:29:36;102273.50;;;0.58
14666;BMP280;7420;53.574;10.040;2022-12-04T04:39:30;102270.34;;;0.66
14666;BMP280;7420;53.574;10.040;2022-12-04T04:44:27;102268.16;;;0.60
14666;BMP280;7420;53.574;10.040;2022-12-04T04:46:55;102277.56;;;0.62
14666;BMP280;7420;53.574;10.040;2022-12-04T04:49:23;102277.16;;;0.56
14666;BMP280;7420;53.574;10.040;2022-12-04T04:51:50;102276.81;;;0.60
14666;BMP280;7420;53.574;10.040;2022-12-04T04:54:16;102279.38;;;0.49
14666;BMP280;7420;53.574;10.040;2022-12-04T04:56:43;102274.31;;;0.59
14666;BMP280;7420;53.574;10.040;2022-12-04T04:59:09;102285.75;;;0.58
14666;BMP280;7420;53.574;10.040;2022-12-04T05:01:34;102272.53;;;0.59
14666;BMP280;7420;53.574;10.040;2022-12-04T05:04:01;102281.84;;;0.63
14666;BMP280;7420;53.574;10.040;2022-12-04T05:06:27;102278.00;;;0.56
14666;BMP280;7420;53.574;10.040;2022-12-04T05:08:52;102284.47;;;0.63
14666;BMP280;7420;53.574;10.040;2022-12-04T05:11:17;102281.22;;;0.72
14666;BMP280;7420;53.574;10.040;2022-12-04T05:13:42;102290.16;;;0.57
14666;BMP280;7420;53.574;10.040;2022-12-04T05:16:09;102287.06;;;0.63
14666;BMP280;7420;53.574;10.040;2022-12-04T05:18:35;102290.84;;;0.59
14666;BMP280;7420;53.574;10.040;2022-12-04T05:21:08;102287.72;;;0.67
14666;BMP280;7420;53.574;10.040;2022-12-04T05:23:34;102289.81;;;0.62
14666;BMP280;7420;53.574;10.040;2022-12-04T05:26:03;102291.38;;;0.64
14666;BMP280;7420;53.574;10.040;2022-12-04T05:28:29;102289.69;;;0.63
14666;BMP280;7420;53.574;10.040;2022-12-04T05:30:55;102291.28;;;0.66
14666;BMP280;7420;53.574;10.040;2022-12-04T05:33:20;102296.41;;;0.67
14666;BMP280;7420;53.574;10.040;2022-12-04T05:35:54;102285.91;;;0.67
14666;BMP280;7420;53.574;10.040;2022-12-04T05:38:19;102281.03;;;0.63
14666;BMP280;7420;53.574;10.040;2022-12-04T05:40:44;102280.72;;;0.55
14666;BMP280;7420;53.574;10.040;2022-12-04T05:43:10;102276.81;;;0.60
14666;BMP280;7420;53.574;10.040;2022-12-04T05:45:36;102286.03;;;0.66
14666;BMP280;7420;53.574;10.040;2022-12-04T05:48:01;102286.91;;;0.54
14666;BMP280;7420;53.574;10.040;2022-12-04T05:50:26;102296.59;;;0.64
14666;BMP280;7420;53.574;10.040;2022-12-04T05:52:51;102287.91;;;0.76
14666;BMP280;7420;53.574;10.040;2022-12-04T05:55:17;102289.91;;;0.60
14666;BMP280;7420;53.574;10.040;2022-12-04T05:57:42;102289.47;;;0.66
14666;BMP280;7420;53.574;10.040;2022-12-04T06:00:07;102285.41;;;0.62
14666;BMP280;7420;53.574;10.040;2022-12-04T06:02:32;102279.97;;;0.65
14666;BMP280;7420;53.574;10.040;2022-12-04T06:04:58;102287.16;;;0.74
14666;BMP280;7420;53.574;10.040;2022-12-04T06:07:23;102282.66;;;0.76
14666;BMP280;7420;53.574;10.040;2022-12-04T06:09:48;102283.72;;;0.74
14666;BMP280;7420;53.574;10.040;2022-12-04T06:12:14;102274.06;;;0.74
14666;BMP280;7420;53.574;10.040;2022-12-04T06:14:39;102273.13;;;0.75
14666;BMP280;7420;53.574;10.040;2022-12-04T06:17:04;102283.63;;;0.63
14666;BMP280;7420;53.574;10.040;2022-12-04T06:19:29;102283.34;;;0.55
14666;BMP280;7420;53.574;10.040;2022-12-04T06:21:55;102283.31;;;0.67
14666;BMP280;7420;53.574;10.040;2022-12-04T06:24:21;102290.25;;;0.56
14666;BMP280;7420;53.574;10.040;2022-12-04T06:26:46;102291.88;;;0.69
14666;BMP280;7420;53.574;10.040;2022-12-04T06:29:12;102300.47;;;0.71
14666;BMP280;7420;53.574;10.040;2022-12-04T06:31:38;102305.28;;;0.77
14666;BMP280;7420;53.574;10.040;2022-12-04T06:34:04;102298.59;;;0.73
14666;BMP280;7420;53.574;10.040;2022-12-04T06:36:30;102297.13;;;0.69
14666;BMP280;7420;53.574;10.040;2022-12-04T06:38:55;102294.19;;;0.74
14666;BMP280;7420;53.574;10.040;2022-12-04T06:41:21;102289.78;;;0.74
14666;BMP280;7420;53.574;10.040;2022-12-04T06:43:47;102297.44;;;0.77
14666;BMP280;7420;53.574;10.040;2022-12-04T06:46:14;102295.03;;;0.74
14666;BMP280;7420;53.574;10.040;2022-12-04T06:48:40;102295.97;;;0.73
14666;BMP280;7420;53.574;10.040;2022-12-04T06:51:06;102298.28;;;0.65
14666;BMP280;7420;53.574;10.040;2022-12-04T06:53:32;102292.03;;;0.55
14666;BMP280;7420;53.574;10.040;2022-12-04T06:55:58;102306.56;;;0.59
14666;BMP280;7420;53.574;10.040;2022-12-04T06:58:24;102304.56;;;0.75
14666;BMP280;7420;53.574;10.040;2022-12-04T07:00:50;102304.94;;;0.82
14666;BMP280;7420;53.574;10.040;2022-12-04T07:03:15;102304.41;;;0.89
14666;BMP280;7420;53.574;10.040;2022-12-04T07:05:41;102310.25;;;0.93
14666;BMP280;7420;53.574;10.040;2022-12-04T07:08:06;102309.66;;;0.89
14666;BMP280;7420;53.574;10.040;2022-12-04T07:10:33;102308.94;;;0.87
14666;BMP280;7420;53.574;10.040;2022-12-04T07:12:58;102310.59;;;0.88
14666;BMP280;7420;53.574;10.040;2022-12-04T07:15:24;102305.47;;;0.87
14666;BMP280;7420;53.574;10.040;2022-12-04T07:17:49;102308.50;;;0.93
14666;BMP280;7420;53.574;10.040;2022-12-04T07:20:14;102309.66;;;0.89
14666;BMP280;7420;53.574;10.040;2022-12-04T07:22:39;102302.31;;;0.94
14666;BMP280;7420;53.574;10.040;2022-12-04T07:25:05;102315.28;;;0.96
14666;BMP280;7420;53.574;10.040;2022-12-04T07:27:30;102307.56;;;0.94
14666;BMP280;7420;53.574;10.040;2022-12-04T07:29:55;102298.97;;;0.92
14666;BMP280;7420;53.574;10.040;2022-12-04T07:32:21;102304.00;;;0.95
14666;BMP280;7420;53.574;10.040;2022-12-04T07:34:46;102310.66;;;0.99
14666;BMP280;7420;53.574;10.040;2022-12-04T07:37:11;102311.38;;;1.01
14666;BMP280;7420;53.574;10.040;2022-12-04T07:39:36;102299.00;;;1.03
14666;BMP280;7420;53.574;10.040;2022-12-04T07:42:02;102299.75;;;1.05
14666;BMP280;7420;53.574;10.040;2022-12-04T07:44:29;102296.53;;;1.02
14666;BMP280;7420;53.574;10.040;2022-12-04T07:46:54;102302.75;;;0.88
14666;BMP280;7420;53.574;10.040;2022-12-04T07:49:19;102321.06;;;0.88
14666;BMP280;7420;53.574;10.040;2022-12-04T07:51:45;102302.56;;;1.02
14666;BMP280;7420;53.574;10.040;2022-12-04T07:54:10;102307.81;;;1.14
14666;BMP280;7420;53.574;10.040;2022-12-04T07:56:35;102322.41;;;0.94
14666;BMP280;7420;53.574;10.040;2022-12-04T07:59:01;102320.47;;;1.08
14666;BMP280;7420;53.574;10.040;2022-12-04T08:01:26;102320.03;;;1.14
14666;BMP280;7420;53.574;10.040;2022-12-04T08:03:52;102320.47;;;1.08
14666;BMP280;7420;53.574;10.040;2022-12-04T08:06:19;102326.75;;;1.18
14666;BMP280;7420;53.574;10.040;2022-12-04T08:08:45;102321.50;;;1.18
14666;BMP280;7420;53.574;10.040;2022-12-04T08:11:12;102322.00;;;1.23
14666;BMP280;7420;53.574;10.040;2022-12-04T08:13:37;102324.84;;;1.20
14666;BMP280;7420;53.574;10.040;2022-12-04T08:16:03;102325.56;;;1.22
14666;BMP280;7420;53.574;10.040;2022-12-04T08:18:29;102316.56;;;1.26
14666;BMP280;7420;53.574;10.040;2022-12-04T08:21:01;102321.06;;;1.24
14666;BMP280;7420;53.574;10.040;2022-12-04T08:23:26;102314.16;;;1.23
14666;BMP280;7420;53.574;10.040;2022-12-04T08:25:52;102324.63;;;1.23
14666;BMP280;7420;53.574;10.040;2022-12-04T08:28:17;102310.19;;;1.17
14666;BMP280;7420;53.574;10.040;2022-12-04T08:30:42;102312.53;;;1.33
14666;BMP280;7420;53.574;10.040;2022-12-04T08:33:07;102320.78;;;1.39
14666;BMP280;7420;53.574;10.040;2022-12-04T08:35:33;102321.59;;;1.40
14666;BMP280;7420;53.574;10.040;2022-12-04T08:37:58;102328.94;;;1.24
14666;BMP280;7420;53.574;10.040;2022-12-04T08:40:23;102319.84;;;1.40
14666;BMP280;7420;53.574;10.040;2022-12-04T08:42:48;102317.31;;;1.39
14666;BMP280;7420;53.574;10.040;2022-12-04T08:45:14;102318.53;;;1.46
14666;BMP280;7420;53.574;10.040;2022-12-04T08:47:39;102318.44;;;1.47
14666;BMP280;7420;53.574;10.040;2022-12-04T08:50:04;102318.66;;;1.44
14666;BMP280;7420;53.574;10.040;2022-12-04T08:52:30;102319.50;;;1.45
14666;BMP280;7420;53.574;10.040;2022-12-04T08:54:56;102317.88;;;1.55
14666;BMP280;7420;53.574;10.040;2022-12-04T08:57:21;102323.13;;;1.55
14666;BMP280;7420;53.574;10.040;2022-12-04T08:59:46;102318.72;;;1.55
14666;BMP280;7420;53.574;10.040;2022-12-04T09:02:12;102309.06;;;1.56
14666;BMP280;7420;53.574;10.040;2022-12-04T09:04:37;102317.31;;;1.62
14666;BMP280;7420;53.574;10.040;2022-12-04T09:07:02;102313.69;;;1.76
14666;BMP280;7420;53.574;10.040;2022-12-04T09:09:28;102315.94;;;1.80
14666;BMP280;7420;53.574;10.040;2022-12-04T09:11:53;102314.38;;;1.78
14666;BMP280;7420;53.574;10.040;2022-12-04T09:14:18;102312.25;;;1.83
14666;BMP280;7420;53.574;10.040;2022-12-04T09:16:49;102313.19;;;1.82
14666;BMP280;7420;53.574;10.040;2022-12-04T09:19:14;102316.59;;;1.95
14666;BMP280;7420;53.574;10.040;2022-12-04T09:21:40;102312.78;;;1.99
14666;BMP280;7420;53.574;10.040;2022-12-04T09:24:05;102310.47;;;1.83
14666;BMP280;7420;53.574;10.040;2022-12-04T09:26:31;102314.19;;;1.92
14666;BMP280;7420;53.574;10.040;2022-12-04T09:28:57;102314.53;;;1.87
14666;BMP280;7420;53.574;10.040;2022-12-04T09:31:23;102308.94;;;1.92
14666;BMP280;7420;53.574;10.040;2022-12-04T09:33:49;102309.56;;;2.06
14666;BMP280;7420;53.574;10.040;2022-12-04T09:36:14;102306.69;;;1.98
14666;BMP280;7420;53.574;10.040;2022-12-04T09:38:40;102307.53;;;1.99
14666;BMP280;7420;53.574;10.040;2022-12-04T09:41:27;102306.34;;;2.03
14666;BMP280;7420;53.574;10.040;2022-12-04T09:48:59;102303.75;;;2.14
14666;BMP280;7420;53.574;10.040;2022-12-04T09:51:26;102299.34;;;2.14
14666;BMP280;7420;53.574;10.040;2022-12-04T09:53:56;102297.56;;;2.15
14666;BMP280;7420;53.574;10.040;2022-12-04T09:56:24;102291.59;;;2.23
14666;BMP280;7420;53.574;10.040;2022-12-04T10:01:43;102279.44;;;2.33
14666;BMP280;7420;53.574;10.040;2022-12-04T10:04:09;102277.63;;;2.45
14666;BMP280;7420;53.574;10.040;2022-12-04T10:09:24;102279.22;;;2.47
14666;BMP280;7420;53.574;10.040;2022-12-04T10:11:53;102279.19;;;2.58
14666;BMP280;7420;53.574;10.040;2022-12-04T10:19:47;102282.28;;;2.63
14666;BMP280;7420;53.574;10.040;2022-12-04T10:22:32;102281.56;;;2.72
14666;BMP280;7420;53.574;10.040;2022-12-04T10:24:59;102275.84;;;2.56
14666;BMP280;7420;53.574;10.040;2022-12-04T10:27:29;102279.19;;;2.58
14666;BMP280;7420;53.574;10.040;2022-12-04T10:30:09;102274.66;;;2.71
14666;BMP280;7420;53.574;10.040;2022-12-04T10:32:38;102271.88;;;3.98
14666;BMP280;7420;53.574;10.040;2022-12-04T10:37:49;102271.88;;;2.95
14666;BMP280;7420;53.574;10.040;2022-12-04T10:40:20;102268.44;;;2.83
14666;BMP280;7420;53.574;10.040;2022-12-04T10:42:48;102274.16;;;2.88
14666;BMP280;7420;53.574;10.040;2022-12-04T10:45:17;102269.84;;;2.87
14666;BMP280;7420;53.574;10.040;2022-12-04T10:47:44;102268.19;;;2.86
14666;BMP280;7420;53.574;10.040;2022-12-04T10:50:13;102273.31;;;2.88
14666;BMP280;7420;53.574;10.040;2022-12-04T10:52:39;102269.50;;;2.81
14666;BMP280;7420;53.574;10.040;2022-12-04T10:55:04;102265.34;;;2.78
14666;BMP280;7420;53.574;10.040;2022-12-04T10:57:33;102262.94;;;2.64
14666;BMP280;7420;53.574;10.040;2022-12-04T10:59:59;102266.91;;;2.59
14666;BMP280;7420;53.574;10.040;2022-12-04T11:02:28;102263.31;;;2.71
14666;BMP280;7420;53.574;10.040;2022-12-04T11:04:55;102256.50;;;2.68
14666;BMP280;7420;53.574;10.040;2022-12-04T11:07:22;102256.41;;;2.70
14666;BMP280;7420;53.574;10.040;2022-12-04T11:09:58;102254.13;;;2.65
14666;BMP280;7420;53.574;10.040;2022-12-04T11:12:27;102251.03;;;2.60
14666;BMP280;7420;53.574;10.040;2022-12-04T11:17:30;102255.06;;;2.64
14666;BMP280;7420;53.574;10.040;2022-12-04T11:19:59;102250.28;;;2.69
14666;BMP280;7420;53.574;10.040;2022-12-04T11:22:25;102248.88;;;2.65
14666;BMP280;7420;53.574;10.040;2022-12-04T11:24:55;102245.75;;;2.60
14666;BMP280;7420;53.574;10.040;2022-12-04T11:27:31;102243.28;;;2.59
14666;BMP280;7420;53.574;10.040;2022-12-04T11:29:59;102241.69;;;2.67
14666;BMP280;7420;53.574;10.040;2022-12-04T11:32:26;102243.28;;;2.70
14666;BMP280;7420;53.574;10.040;2022-12-04T11:34:53;102240.28;;;2.63
14666;BMP280;7420;53.574;10.040;2022-12-04T11:37:29;102234.06;;;2.64
14666;BMP280;7420;53.574;10.040;2022-12-04T11:39:55;102242.19;;;2.61
14666;BMP280;7420;53.574;10.040;2022-12-04T11:42:25;102240.28;;;2.74
14666;BMP280;7420;53.574;10.040;2022-12-04T11:44:52;102237.41;;;2.77
14666;BMP280;7420;53.574;10.040;2022-12-04T11:47:19;102232.84;;;2.79
14666;BMP280;7420;53.574;10.040;2022-12-04T11:49:44;102229.03;;;2.83
14666;BMP280;7420;53.574;10.040;2022-12-04T11:57:21;102223.78;;;2.72
14666;BMP280;7420;53.574;10.040;2022-12-04T12:22:27;102218.75;;;2.91
14666;BMP280;7420;53.574;10.040;2022-12-04T12:35:04;102211.81;;;2.90
14666;BMP280;7420;53.574;10.040;2022-12-04T12:37:38;102216.38;;;2.77
14666;BMP280;7420;53.574;10.040;2022-12-04T12:40:10;102212.31;;;2.84
14666;BMP280;7420;53.574;10.040;2022-12-04T12:42:52;102209.06;;;2.92
14666;BMP280;7420;53.574;10.040;2022-12-04T12:45:27;102209.38;;;2.98
14666;BMP280;7420;53.574;10.040;2022-12-04T12:47:55;102205.00;;;2.99
14666;BMP280;7420;53.574;10.040;2022-12-04T12:50:24;102193.13;;;3.04
14666;BMP280;7420;53.574;10.040;2022-12-04T13:00:36;102194.06;;;3.14
14666;BMP280;7420;53.574;10.040;2022-12-04T13:05:52;102179.50;;;3.10
14666;BMP280;7420;53.574;10.040;2022-12-04T13:08:24;102174.28;;;2.99
14666;BMP280;7420;53.574;10.040;2022-12-04T13:10:57;102164.31;;;3.14
14666;BMP280;7420;53.574;10.040;2022-12-04T13:13:26;102160.16;;;3.11
14666;BMP280;7420;53.574;10.040;2022-12-04T13:15:53;102156.31;;;3.15
14666;BMP280;7420;53.574;10.040;2022-12-04T13:18:24;102150.53;;;3.01
14666;BMP280;7420;53.574;10.040;2022-12-04T13:20:51;102157.09;;;2.95
14666;BMP280;7420;53.574;10.040;2022-12-04T13:26:14;102145.28;;;3.21
14666;BMP280;7420;53.574;10.040;2022-12-04T13:41:44;102130.72;;;3.17
14666;BMP280;7420;53.574;10.040;2022-12-04T13:44:13;102142.97;;;3.07
14666;BMP280;7420;53.574;10.040;2022-12-04T13:46:53;102129.38;;;3.23
14666;BMP280;7420;53.574;10.040;2022-12-04T13:51:44;102138.63;;;3.17
14666;BMP280;7420;53.574;10.040;2022-12-04T13:56:35;102136.66;;;3.30
14666;BMP280;7420;53.574;10.040;2022-12-04T13:59:02;102139.84;;;3.34
14666;BMP280;7420;53.574;10.040;2022-12-04T14:01:30;102150.28;;;3.24
14666;BMP280;7420;53.574;10.040;2022-12-04T14:04:00;102142.53;;;3.23
14666;BMP280;7420;53.574;10.040;2022-12-04T14:06:48;102149.91;;;3.29
14666;BMP280;7420;53.574;10.040;2022-12-04T14:09:21;102149.44;;;3.24
14666;BMP280;7420;53.574;10.040;2022-12-04T14:11:50;102154.94;;;3.21
14666;BMP280;7420;53.574;10.040;2022-12-04T14:14:19;102152.16;;;3.33
14666;BMP280;7420;53.574;10.040;2022-12-04T14:16:46;102151.38;;;3.42
14666;BMP280;7420;53.574;10.040;2022-12-04T14:19:23;102159.84;;;3.25
14666;BMP280;7420;53.574;10.040;2022-12-04T14:21:50;102159.34;;;3.31
14666;BMP280;7420;53.574;10.040;2022-12-04T14:24:16;102149.38;;;3.35
14666;BMP280;7420;53.574;10.040;2022-12-04T14:26:48;102153.03;;;3.43
14666;BMP280;7420;53.574;10.040;2022-12-04T14:31:51;102152.41;;;3.30
14666;BMP280;7420;53.574;10.040;2022-12-04T14:34:19;102146.63;;;3.36
14666;BMP280;7420;53.574;10.040;2022-12-04T14:36:45;102148.81;;;3.31
14666;BMP280;7420;53.574;10.040;2022-12-04T14:44:30;102155.03;;;3.30
14666;BMP280;7420;53.574;10.040;2022-12-04T14:47:00;102151.38;;;3.42
14666;BMP280;7420;53.574;10.040;2022-12-04T14:49:38;102163.00;;;3.39
14666;BMP280;7420;53.574;10.040;2022-12-04T15:00:13;102141.09;;;3.39
14666;BMP280;7420;53.574;10.040;2022-12-04T15:02:40;102143.38;;;3.43
14666;BMP280;7420;53.574;10.040;2022-12-04T15:05:11;102135.59;;;3.42
14666;BMP280;7420;53.574;10.040;2022-12-04T15:07:44;102135.34;;;3.45
14666;BMP280;7420;53.574;10.040;2022-12-04T15:10:21;102141.56;;;3.44
14666;BMP280;7420;53.574;10.040;2022-12-04T15:13:05;102134.19;;;3.38
14666;BMP280;7420;53.574;10.040;2022-12-04T15:15:31;102132.50;;;3.37
14666;BMP280;7420;53.574;10.040;2022-12-04T15:20:28;102135.59;;;3.42
14666;BMP280;7420;53.574;10.040;2022-12-04T15:22:55;102129.00;;;3.47
14666;BMP280;7420;53.574;10.040;2022-12-04T15:25:27;102130.97;;;3.55
14666;BMP280;7420;53.574;10.040;2022-12-04T15:27:59;102125.72;;;3.55
14666;BMP280;7420;53.574;10.040;2022-12-04T15:30:26;102127.91;;;3.50
14666;BMP280;7420;53.574;10.040;2022-12-04T15:32:53;102132.00;;;3.43
14666;BMP280;7420;53.574;10.040;2022-12-04T15:35:25;102124.97;;;3.43
14666;BMP280;7420;53.574;10.040;2022-12-04T15:37:51;102125.97;;;3.52
14666;BMP280;7420;53.574;10.040;2022-12-04T15:40:21;102122.69;;;3.59
14666;BMP280;7420;53.574;10.040;2022-12-04T15:42:47;102125.47;;;3.58
14666;BMP280;7420;53.574;10.040;2022-12-04T15:47:49;102123.09;;;3.55
14666;BMP280;7420;53.574;10.040;2022-12-04T15:55:24;102120.75;;;3.61
14666;BMP280;7420;53.574;10.040;2022-12-04T15:57:56;102116.69;;;3.48
14666;BMP280;7420;53.574;10.040;2022-12-04T16:01:22;102119.69;;;3.64
14666;BMP280;7420;53.574;10.040;2022-12-04T16:06:00;102115.50;;;3.61
14666;BMP280;7420;53.574;10.040;2022-12-04T16:08:33;102119.53;;;3.65
14666;BMP280;7420;53.574;10.040;2022-12-04T16:13:29;102118.28;;;3.60
14666;BMP280;7420;53.574;10.040;2022-12-04T16:15:54;102119.78;;;3.62
14666;BMP280;7420;53.574;10.040;2022-12-04T16:18:20;102115.44;;;3.72
14666;BMP280;7420;53.574;10.040;2022-12-04T16:20:45;102113.47;;;3.65
14666;BMP280;7420;53.574;10.040;2022-12-04T16:23:10;102107.78;;;3.69
14666;BMP280;7420;53.574;10.040;2022-12-04T16:25:36;102115.03;;;3.77
14666;BMP280;7420;53.574;10.040;2022-12-04T16:28:01;102108.66;;;3.70
14666;BMP280;7420;53.574;10.040;2022-12-04T16:30:27;102104.25;;;3.80
14666;BMP280;7420;53.574;10.040;2022-12-04T16:32:53;102116.69;;;3.78
14666;BMP280;7420;53.574;10.040;2022-12-04T16:35:18;102113.63;;;3.73
14666;BMP280;7420;53.574;10.040;2022-12-04T16:37:43;102107.28;;;3.75
14666;BMP280;7420;53.574;10.040;2022-12-04T16:40:10;102112.00;;;3.81
14666;BMP280;7420;53.574;10.040;2022-12-04T16:42:35;102108.91;;;3.67
14666;BMP280;7420;53.574;10.040;2022-12-04T16:45:01;102112.78;;;3.72
14666;BMP280;7420;53.574;10.040;2022-12-04T16:47:26;102109.50;;;3.80
14666;BMP280;7420;53.574;10.040;2022-12-04T16:49:52;102113.06;;;3.69
14666;BMP280;7420;53.574;10.040;2022-12-04T16:52:18;102100.91;;;3.78
14666;BMP280;7420;53.574;10.040;2022-12-04T16:54:43;102109.38;;;3.81
14666;BMP280;7420;53.574;10.040;2022-12-04T16:57:09;102103.53;;;3.78
14666;BMP280;7420;53.574;10.040;2022-12-04T16:59:34;102117.25;;;3.72